createdAt,value
2022-10-16T00:01:28.421Z,101570.40
2022-10-16T00:03:57.393Z,101577.92
2022-10-16T00:06:25.332Z,101581.52
2022-10-16T00:08:53.388Z,101573.38
2022-10-16T00:11:27.062Z,101584.33
2022-10-16T00:14:01.210Z,101579.23
2022-10-16T00:16:30.231Z,101570.33
2022-10-16T00:18:57.939Z,101572.82
2022-10-16T00:21:28.352Z,101568.63
2022-10-16T00:23:59.270Z,101565.66
2022-10-16T00:26:27.951Z,101580.05
2022-10-16T00:28:55.754Z,101580.86
2022-10-16T00:31:25.049Z,101575.89
2022-10-16T00:33:53.776Z,101570.95
2022-10-16T00:36:23.962Z,101567.55
2022-10-16T00:38:56.781Z,101571.21
2022-10-16T00:41:26.458Z,101568.63
2022-10-16T00:44:02.704Z,101557.41
2022-10-16T00:46:43.190Z,101563.50
2022-10-16T00:49:18.492Z,101570.04
2022-10-16T00:51:52.566Z,101565.36
2022-10-16T00:54:24.778Z,101569.55
2022-10-16T00:56:53.638Z,101573.70
2022-10-16T00:59:26.739Z,101567.42
2022-10-16T01:01:55.623Z,101566.96
2022-10-16T01:04:25.183Z,101574.29
2022-10-16T01:07:06.878Z,101571.61
2022-10-16T01:09:41.759Z,101570.82
2022-10-16T01:12:15.678Z,101586.52
2022-10-16T01:14:46.186Z,101579.65
2022-10-16T01:17:17.789Z,101575.99
2022-10-16T01:19:57.534Z,101581.74
2022-10-16T01:22:33.485Z,101579.65
2022-10-16T01:25:07.853Z,101578.57
2022-10-16T01:27:39.735Z,101572.33
2022-10-16T01:30:19.279Z,101579.16
2022-10-16T01:33:16.002Z,101578.67
2022-10-16T01:35:47.987Z,101571.80
2022-10-16T01:38:24.391Z,101583.12
2022-10-16T01:40:59.392Z,101579.45
2022-10-16T01:43:33.204Z,101581.05
2022-10-16T01:46:02.759Z,101589.69
2022-10-16T01:48:31.976Z,101581.35
2022-10-16T01:51:05.910Z,101594.62
2022-10-16T01:53:34.827Z,101599.40
2022-10-16T01:56:05.652Z,101597.31
2022-10-16T01:58:37.247Z,101604.38
2022-10-16T02:01:07.131Z,101598.12
2022-10-16T02:03:36.549Z,101594.43
2022-10-16T02:06:04.302Z,101601.30
2022-10-16T02:08:33.664Z,101596.59
2022-10-16T02:11:02.455Z,101589.27
2022-10-16T02:13:37.887Z,101598.62
2022-10-16T02:16:05.809Z,101598.62
2022-10-16T02:18:33.689Z,101600.68
2022-10-16T02:21:01.354Z,101593.65
2022-10-16T02:24:10.427Z,101591.06
2022-10-16T02:26:47.552Z,101594.73
2022-10-16T02:29:19.528Z,101592.66
2022-10-16T02:31:53.154Z,101597.60
2022-10-16T02:34:23.509Z,101593.65
2022-10-16T02:36:53.056Z,101606.43
2022-10-16T02:39:22.596Z,101592.27
2022-10-16T02:41:50.353Z,101582.34
2022-10-16T02:44:18.076Z,101575.79
2022-10-16T02:46:45.715Z,101599.01
2022-10-16T02:49:13.426Z,101610.72
2022-10-16T02:51:41.098Z,101600.68
2022-10-16T02:54:08.785Z,101601.98
2022-10-16T02:56:36.377Z,101598.52
2022-10-16T02:59:04.113Z,101602.18
2022-10-16T03:01:32.099Z,101607.45
2022-10-16T03:03:59.837Z,101609.54
2022-10-16T03:06:27.461Z,101591.65
2022-10-16T03:08:55.137Z,101590.38
2022-10-16T03:11:22.754Z,101594.53
2022-10-16T03:13:50.608Z,101591.06
2022-10-16T03:16:18.203Z,101572.23
2022-10-16T03:18:45.835Z,101573.30
2022-10-16T03:21:13.432Z,101565.00
2022-10-16T03:23:41.051Z,101570.76
2022-10-16T03:26:08.648Z,101574.38
2022-10-16T03:28:36.284Z,101579.65
2022-10-16T03:31:04.237Z,101601.10
2022-10-16T03:33:31.928Z,101601.10
2022-10-16T03:35:59.578Z,101612.52
2022-10-16T03:38:27.204Z,101603.88
2022-10-16T03:40:54.845Z,101601.49
2022-10-16T03:43:22.493Z,101599.86
2022-10-16T03:45:51.863Z,101604.24
2022-10-16T03:48:20.552Z,101606.30
2022-10-16T03:50:50.125Z,101612.87
2022-10-16T03:53:17.924Z,101625.17
2022-10-16T03:55:46.200Z,101622.29
2022-10-16T03:58:14.109Z,101624.05
2022-10-16T04:00:49.725Z,101627.63
2022-10-16T04:03:17.728Z,101631.02
2022-10-16T04:05:45.383Z,101636.95
2022-10-16T04:08:12.999Z,101634.36
2022-10-16T04:10:40.605Z,101639.03
2022-10-16T04:13:08.267Z,101629.62
2022-10-16T04:15:35.934Z,101628.31
2022-10-16T04:18:03.552Z,101632.30
2022-10-16T04:20:32.055Z,101630.50
2022-10-16T04:22:59.703Z,101629.52
2022-10-16T04:25:27.388Z,101637.66
2022-10-16T04:27:56.029Z,101640.84
2022-10-16T04:30:24.227Z,101631.71
2022-10-16T04:32:53.079Z,101636.45
2022-10-16T04:35:22.676Z,101637.59
2022-10-16T04:37:50.360Z,101635.54
2022-10-16T04:40:18.202Z,101639.16
2022-10-16T04:42:45.850Z,101642.56
2022-10-16T04:45:16.409Z,101646.52
2022-10-16T04:47:44.909Z,101644.46
2022-10-16T04:50:12.874Z,101654.17
2022-10-16T04:52:40.787Z,101651.30
2022-10-16T04:55:09.118Z,101645.84
2022-10-16T04:57:36.708Z,101646.13
2022-10-16T05:00:06.475Z,101655.35
2022-10-16T05:02:34.151Z,101657.18
2022-10-16T05:05:01.824Z,101660.06
2022-10-16T05:07:29.651Z,101657.34
2022-10-16T05:09:57.345Z,101664.41
2022-10-16T05:12:25.034Z,101663.88
2022-10-16T05:14:52.669Z,101661.83
2022-10-16T05:17:20.314Z,101670.46
2022-10-16T05:19:47.962Z,101663.88
2022-10-16T05:22:15.565Z,101657.34
2022-10-16T05:24:43.195Z,101656.07
2022-10-16T05:27:10.811Z,101652.38
2022-10-16T05:29:38.593Z,101647.14
2022-10-16T05:32:06.283Z,101650.61
2022-10-16T05:34:33.979Z,101653.00
2022-10-16T05:37:01.570Z,101651.23
2022-10-16T05:39:29.163Z,101653.59
2022-10-16T05:41:56.857Z,101647.83
2022-10-16T05:44:24.590Z,101664.61
2022-10-16T05:46:52.285Z,101658.55
2022-10-16T05:49:20.027Z,101663.49
2022-10-16T05:51:47.790Z,101671.38
2022-10-16T05:54:15.531Z,101678.38
2022-10-16T05:56:43.180Z,101676.02
2022-10-16T05:59:11.026Z,101683.84
2022-10-16T06:01:38.685Z,101689.30
2022-10-16T06:04:06.470Z,101691.68
2022-10-16T06:06:34.202Z,101694.07
2022-10-16T06:09:01.883Z,101702.41
2022-10-16T06:11:32.774Z,101695.34
2022-10-16T06:14:04.644Z,101696.16
2022-10-16T06:16:32.305Z,101693.09
2022-10-16T06:19:01.330Z,101696.26
2022-10-16T06:21:30.808Z,101695.28
2022-10-16T06:23:59.142Z,101703.42
2022-10-16T06:26:29.041Z,101706.59
2022-10-16T06:29:01.438Z,101696.20
2022-10-16T06:31:32.754Z,101704.11
2022-10-16T06:34:00.442Z,101706.98
2022-10-16T06:36:28.847Z,101715.45
2022-10-16T06:38:56.801Z,101710.26
2022-10-16T06:41:25.427Z,101705.13
2022-10-16T06:43:54.323Z,101708.59
2022-10-16T06:46:25.533Z,101718.34
2022-10-16T06:48:53.529Z,101717.84
2022-10-16T06:51:26.080Z,101722.13
2022-10-16T06:54:03.297Z,101729.45
2022-10-16T06:56:33.735Z,101730.76
2022-10-16T06:59:02.146Z,101738.67
2022-10-16T07:01:30.829Z,101743.35
2022-10-16T07:03:58.960Z,101741.59
2022-10-16T07:06:28.190Z,101754.37
2022-10-16T07:08:55.935Z,101758.55
2022-10-16T07:11:25.529Z,101762.22
2022-10-16T07:13:55.859Z,101768.30
2022-10-16T07:16:32.180Z,101775.33
2022-10-16T07:19:01.865Z,101787.36
2022-10-16T07:21:37.539Z,101785.47
2022-10-16T07:24:07.785Z,101792.40
2022-10-16T07:26:37.621Z,101790.80
2022-10-16T07:29:05.705Z,101789.39
2022-10-16T07:31:33.631Z,101794.39
2022-10-16T07:34:02.553Z,101789.39
2022-10-16T07:36:30.346Z,101790.21
2022-10-16T07:38:59.894Z,101802.83
2022-10-16T07:41:28.925Z,101801.52
2022-10-16T07:43:57.070Z,101788.73
2022-10-16T07:46:25.220Z,101793.77
2022-10-16T07:48:53.308Z,101787.36
2022-10-16T07:51:26.016Z,101794.82
2022-10-16T07:53:54.482Z,101804.66
2022-10-16T07:56:22.494Z,101814.70
2022-10-16T07:58:51.834Z,101818.33
2022-10-16T08:01:23.371Z,101833.27
2022-10-16T08:03:52.972Z,101835.62
2022-10-16T08:13:16.981Z,101844.16
2022-10-16T08:15:45.688Z,101843.57
2022-10-16T08:18:15.589Z,101831.34
2022-10-16T08:20:44.741Z,101838.31
2022-10-16T08:23:14.108Z,101839.52
2022-10-16T08:25:42.869Z,101828.40
2022-10-16T08:28:12.613Z,101832.75
2022-10-16T08:30:40.269Z,101840.30
2022-10-16T08:33:08.585Z,101844.42
2022-10-16T08:35:36.270Z,101853.97
2022-10-16T08:38:08.090Z,101853.74
2022-10-16T08:40:39.088Z,101861.40
2022-10-16T08:43:06.697Z,101861.98
2022-10-16T08:45:46.316Z,101870.16
2022-10-16T08:48:22.190Z,101871.92
2022-10-16T08:50:51.883Z,101883.66
2022-10-16T08:53:27.541Z,101884.68
2022-10-16T08:55:56.426Z,101890.92
2022-10-16T08:58:29.917Z,101884.29
2022-10-16T09:01:01.025Z,101880.10
2022-10-16T09:04:01.120Z,101888.05
2022-10-16T09:06:56.614Z,101885.70
2022-10-16T09:09:36.507Z,101895.21
2022-10-16T09:12:10.067Z,101886.34
2022-10-16T09:14:57.710Z,101889.81
2022-10-16T09:17:31.011Z,101894.42
2022-10-16T09:20:10.853Z,101889.42
2022-10-16T09:22:38.726Z,101892.10
2022-10-16T09:25:22.412Z,101897.46
2022-10-16T09:27:54.309Z,101888.38
2022-10-16T09:30:24.034Z,101886.38
2022-10-16T09:32:55.040Z,101879.71
2022-10-16T09:35:29.223Z,101881.87
2022-10-16T09:37:57.225Z,101890.40
2022-10-16T09:40:36.763Z,101899.42
2022-10-16T09:43:19.109Z,101902.96
2022-10-16T09:46:09.043Z,101904.63
2022-10-16T09:48:49.084Z,101907.60
2022-10-16T09:51:38.054Z,101905.09
2022-10-16T09:54:11.489Z,101905.97
2022-10-16T09:56:41.326Z,101903.41
2022-10-16T09:59:17.063Z,101898.54
2022-10-16T10:01:57.131Z,101886.61
2022-10-16T10:04:27.861Z,101889.39
2022-10-16T10:06:58.335Z,101898.45
2022-10-16T10:09:27.785Z,101895.41
2022-10-16T10:12:06.525Z,101895.24
2022-10-16T10:14:43.177Z,101893.15
2022-10-16T10:17:10.714Z,101899.03
2022-10-16T10:19:49.847Z,101897.04
2022-10-16T10:22:40.574Z,101891.64
2022-10-16T10:25:11.269Z,101884.91
2022-10-16T10:27:41.541Z,101877.87
2022-10-16T10:30:19.934Z,101881.87
2022-10-16T10:32:55.395Z,101878.98
2022-10-16T10:35:34.414Z,101882.42
2022-10-16T10:38:22.533Z,101873.73
2022-10-16T10:40:55.962Z,101874.28
2022-10-16T10:43:35.640Z,101884.58
2022-10-16T10:46:11.257Z,101890.70
2022-10-16T10:48:44.083Z,101875.69
2022-10-16T10:51:21.778Z,101875.20
2022-10-16T10:54:06.772Z,101875.23
2022-10-16T10:57:11.780Z,101876.05
2022-10-16T11:00:19.353Z,101880.82
2022-10-16T11:02:57.926Z,101872.71
2022-10-16T11:05:28.467Z,101867.22
2022-10-16T11:08:01.910Z,101878.27
2022-10-16T11:10:40.231Z,101868.82
2022-10-16T11:13:28.203Z,101872.25
2022-10-16T11:16:01.335Z,101865.45
2022-10-16T11:18:31.961Z,101854.63
2022-10-16T11:21:06.845Z,101851.72
2022-10-16T11:23:42.787Z,101850.41
2022-10-16T11:26:21.429Z,101846.22
2022-10-16T11:28:52.627Z,101845.66
2022-10-16T11:31:45.147Z,101841.97
2022-10-16T11:34:35.677Z,101836.94
2022-10-16T11:37:20.219Z,101838.84
2022-10-16T11:39:49.505Z,101836.19
2022-10-16T11:42:41.941Z,101822.16
2022-10-16T11:45:25.285Z,101827.68
2022-10-16T11:48:32.553Z,101819.21
2022-10-16T11:51:15.674Z,101819.18
2022-10-16T11:53:43.175Z,101808.62
2022-10-16T11:56:14.997Z,101812.02
2022-10-16T11:59:07.292Z,101811.43
2022-10-16T12:01:50.700Z,101806.16
2022-10-16T12:04:25.392Z,101796.06
2022-10-16T12:07:10.999Z,101801.85
2022-10-16T12:09:43.296Z,101794.69
2022-10-16T12:12:40.570Z,101802.08
2022-10-16T12:15:22.214Z,101791.98
2022-10-16T12:17:56.982Z,101800.38
2022-10-16T12:20:34.228Z,101798.48
2022-10-16T12:23:09.098Z,101792.92
2022-10-16T12:25:40.157Z,101790.01
2022-10-16T12:28:21.372Z,101790.24
2022-10-16T12:30:57.928Z,101796.06
2022-10-16T12:33:29.230Z,101787.33
2022-10-16T12:35:58.445Z,101787.30
2022-10-16T12:38:39.877Z,101781.18
2022-10-16T12:41:11.615Z,101783.27
2022-10-16T12:43:44.735Z,101784.29
2022-10-16T12:46:12.312Z,101781.67
2022-10-16T12:48:49.028Z,101772.87
2022-10-16T12:51:35.730Z,101778.08
2022-10-16T12:54:14.206Z,101766.40
2022-10-16T12:57:06.448Z,101765.03
2022-10-16T13:00:13.097Z,101764.70
2022-10-16T13:02:59.142Z,101764.41
2022-10-16T13:05:52.648Z,101771.24
2022-10-16T13:08:32.304Z,101768.59
2022-10-16T13:11:36.987Z,101770.16
2022-10-16T13:14:22.924Z,101775.49
2022-10-16T13:17:14.002Z,101773.14
2022-10-16T13:19:59.325Z,101778.20
2022-10-16T13:22:31.373Z,101769.21
2022-10-16T13:25:10.212Z,101765.29
2022-10-16T13:28:07.694Z,101769.54
2022-10-16T13:30:55.287Z,101761.10
2022-10-16T13:33:41.795Z,101763.75
2022-10-16T13:36:21.500Z,101764.05
2022-10-16T13:38:49.315Z,101768.52
2022-10-16T13:41:20.459Z,101768.30
2022-10-16T13:43:52.650Z,101779.13
2022-10-16T13:46:25.279Z,101777.03
2022-10-16T13:49:04.982Z,101772.29
2022-10-16T13:51:34.513Z,101770.95
2022-10-16T13:54:02.193Z,101776.77
2022-10-16T13:56:32.719Z,101781.28
2022-10-16T13:59:08.226Z,101779.13
2022-10-16T14:01:43.423Z,101770.16
2022-10-16T14:04:14.984Z,101773.59
2022-10-16T14:06:47.899Z,101771.50
2022-10-16T14:09:32.792Z,101776.27
2022-10-16T14:12:03.938Z,101780.27
2022-10-16T14:14:41.740Z,101776.87
2022-10-16T14:17:20.580Z,101771.08
2022-10-16T14:19:53.017Z,101780.37
2022-10-16T14:22:36.704Z,101775.88
2022-10-16T14:25:22.095Z,101774.05
2022-10-16T14:28:19.688Z,101780.43
2022-10-16T14:30:57.431Z,101776.21
2022-10-16T14:33:35.162Z,101773.86
2022-10-16T14:36:11.926Z,101774.12
2022-10-16T14:38:45.358Z,101773.66
2022-10-16T14:41:13.007Z,101771.50
2022-10-16T14:43:48.667Z,101781.05
2022-10-16T14:46:28.063Z,101774.97
2022-10-16T14:49:05.199Z,101775.98
2022-10-16T14:51:33.013Z,101779.45
2022-10-16T14:54:00.754Z,101781.58
2022-10-16T14:56:33.360Z,101773.66
2022-10-16T14:59:02.204Z,101774.19
2022-10-16T15:01:29.861Z,101775.23
2022-10-16T15:03:57.480Z,101768.59
2022-10-16T15:06:25.174Z,101772.32
2022-10-16T15:08:52.778Z,101773.07
2022-10-16T15:11:21.669Z,101773.66
2022-10-16T15:13:49.388Z,101769.15
2022-10-16T15:16:18.639Z,101774.19
2022-10-16T15:18:46.360Z,101775.27
2022-10-16T15:21:26.467Z,101774.45
2022-10-16T15:23:54.247Z,101781.61
2022-10-16T15:26:21.935Z,101780.04
2022-10-16T15:28:49.654Z,101783.50
2022-10-16T15:31:17.364Z,101786.94
2022-10-16T15:33:45.007Z,101788.02
2022-10-16T15:36:12.740Z,101785.40
2022-10-16T15:38:40.430Z,101790.70
2022-10-16T15:41:08.075Z,101798.38
2022-10-16T15:43:35.761Z,101796.52
2022-10-16T15:46:07.199Z,101801.59
2022-10-16T15:48:35.567Z,101799.73
2022-10-16T15:51:07.723Z,101806.36
2022-10-16T15:53:36.217Z,101809.30
2022-10-16T15:56:08.633Z,101805.87
2022-10-16T15:58:36.533Z,101814.60
2022-10-16T16:01:08.339Z,101818.88
2022-10-16T16:03:36.098Z,101815.98
2022-10-16T16:06:11.982Z,101818.92
2022-10-16T16:08:40.163Z,101825.30
2022-10-16T16:11:10.203Z,101823.17
2022-10-16T16:13:40.163Z,101821.86
2022-10-16T16:16:13.102Z,101823.73
2022-10-16T16:18:41.260Z,101826.93
2022-10-16T16:21:09.179Z,101825.63
2022-10-16T16:23:37.333Z,101833.27
2022-10-16T16:26:16.827Z,101830.66
2022-10-16T16:28:45.355Z,101837.20
2022-10-16T16:31:13.070Z,101840.66
2022-10-16T16:33:40.724Z,101837.20
2022-10-16T16:36:14.499Z,101848.31
2022-10-16T16:38:43.317Z,101845.41
2022-10-16T16:41:22.471Z,101839.62
2022-10-16T16:43:50.741Z,101855.67
2022-10-16T16:46:18.488Z,101860.68
2022-10-16T16:48:46.935Z,101864.37
2022-10-16T16:51:21.370Z,101874.67
2022-10-16T16:53:52.885Z,101876.21
2022-10-16T16:56:21.544Z,101874.37
2022-10-16T16:58:51.540Z,101880.95
2022-10-16T17:01:21.114Z,101889.62
2022-10-16T17:03:51.756Z,101897.23
2022-10-16T17:06:22.099Z,101893.80
2022-10-16T17:08:51.326Z,101900.90
2022-10-16T17:11:22.971Z,101909.27
2022-10-16T17:13:55.603Z,101917.15
2022-10-16T17:16:32.225Z,101915.29
2022-10-16T17:19:04.889Z,101924.18
2022-10-16T17:21:33.982Z,101926.80
2022-10-16T17:24:02.481Z,101935.69
2022-10-16T17:26:30.971Z,101938.53
2022-10-16T17:29:01.174Z,101935.59
2022-10-16T17:31:34.217Z,101941.34
2022-10-16T17:34:03.322Z,101955.51
2022-10-16T17:36:34.200Z,101954.63
2022-10-16T17:39:08.121Z,101960.12
2022-10-16T17:41:37.740Z,101961.33
2022-10-16T17:44:07.185Z,101954.46
2022-10-16T17:46:38.455Z,101959.86
2022-10-16T17:49:09.101Z,101965.58
2022-10-16T17:51:37.599Z,101965.77
2022-10-16T17:54:05.352Z,101977.77
2022-10-16T17:56:33.189Z,101973.46
2022-10-16T17:59:03.367Z,101985.76
2022-10-16T18:01:37.804Z,101981.73
2022-10-16T18:04:15.173Z,101987.75
2022-10-16T18:06:45.000Z,101986.87
2022-10-16T18:09:16.042Z,101995.17
2022-10-16T18:11:43.672Z,101996.41
2022-10-16T18:14:14.593Z,102002.63
2022-10-16T18:16:42.864Z,102006.72
2022-10-16T18:19:13.749Z,102010.31
2022-10-16T18:21:42.356Z,102006.59
2022-10-16T18:24:10.365Z,102004.20
2022-10-16T18:26:38.459Z,102004.39
2022-10-16T18:29:07.738Z,102005.08
2022-10-16T18:31:37.892Z,102011.88
2022-10-16T18:34:08.309Z,102015.25
2022-10-16T18:36:37.218Z,102007.30
2022-10-16T18:39:11.682Z,102015.09
2022-10-16T18:41:40.925Z,102021.07
2022-10-16T18:44:11.678Z,102026.27
2022-10-16T18:46:39.551Z,102014.62
2022-10-16T18:49:07.778Z,102014.83
2022-10-16T18:51:38.842Z,102018.91
2022-10-16T18:54:10.118Z,102024.08
2022-10-16T18:56:37.997Z,102027.09
2022-10-16T18:59:07.376Z,102027.48
2022-10-16T19:01:39.221Z,102036.05
2022-10-16T19:04:10.175Z,102039.41
2022-10-16T19:06:48.579Z,102041.21
2022-10-16T19:09:17.909Z,102039.91
2022-10-16T19:11:45.910Z,102038.20
2022-10-16T19:14:15.209Z,102054.75
2022-10-16T19:16:46.636Z,102049.16
2022-10-16T19:19:16.819Z,102054.66
2022-10-16T19:21:44.751Z,102048.54
2022-10-16T19:24:15.703Z,102053.25
2022-10-16T19:26:43.773Z,102059.98
2022-10-16T19:29:12.413Z,102065.45
2022-10-16T19:31:40.888Z,102062.77
2022-10-16T19:34:08.857Z,102062.66
2022-10-16T19:36:37.554Z,102062.05
2022-10-16T19:39:08.286Z,102068.81
2022-10-16T19:41:37.958Z,102079.24
2022-10-16T19:44:08.526Z,102078.13
2022-10-16T19:46:37.307Z,102083.13
2022-10-16T19:49:07.742Z,102079.11
2022-10-16T19:51:35.881Z,102086.47
2022-10-16T19:54:09.615Z,102077.51
2022-10-16T19:56:38.637Z,102083.76
2022-10-16T19:59:08.660Z,102082.97
2022-10-16T20:01:36.776Z,102097.06
2022-10-16T20:04:04.470Z,102098.34
2022-10-16T20:06:32.766Z,102098.34
2022-10-16T20:09:00.655Z,102099.35
2022-10-16T20:11:33.478Z,102102.23
2022-10-16T20:14:01.982Z,102096.15
2022-10-16T20:16:31.298Z,102096.94
2022-10-16T20:19:00.179Z,102102.72
2022-10-16T20:21:30.714Z,102096.64
2022-10-16T20:24:00.629Z,102101.94
2022-10-16T20:26:28.591Z,102105.80
2022-10-16T20:28:56.484Z,102105.47
2022-10-16T20:31:30.168Z,102100.70
2022-10-16T20:33:59.433Z,102103.28
2022-10-16T20:36:28.174Z,102105.86
2022-10-16T20:38:55.866Z,102105.05
2022-10-16T20:41:24.123Z,102107.63
2022-10-16T20:43:53.258Z,102110.21
2022-10-16T20:46:24.723Z,102121.39
2022-10-16T20:48:53.860Z,102122.08
2022-10-16T20:51:27.714Z,102133.13
2022-10-16T20:54:00.695Z,102133.62
2022-10-16T20:56:31.329Z,102139.84
2022-10-16T20:58:59.431Z,102141.15
2022-10-16T21:01:29.728Z,102140.85
2022-10-16T21:04:02.988Z,102138.95
2022-10-16T21:06:33.247Z,102144.88
2022-10-16T21:09:04.305Z,102154.00
2022-10-16T21:11:34.837Z,102143.92
2022-10-16T21:14:05.060Z,102155.96
2022-10-16T21:16:33.070Z,102164.13
2022-10-16T21:19:00.993Z,102169.27
2022-10-16T21:21:34.023Z,102167.53
2022-10-16T21:24:02.680Z,102175.22
2022-10-16T21:26:31.868Z,102175.91
2022-10-16T21:29:05.710Z,102167.60
2022-10-16T21:31:34.370Z,102176.59
2022-10-16T21:34:02.418Z,102179.11
2022-10-16T21:36:32.694Z,102182.51
2022-10-16T21:39:07.918Z,102190.33
2022-10-16T21:41:36.663Z,102196.08
2022-10-16T21:44:04.953Z,102190.33
2022-10-16T21:46:35.681Z,102194.02
2022-10-16T21:49:06.887Z,102195.30
2022-10-16T21:51:40.366Z,102187.45
2022-10-16T21:54:12.851Z,102195.30
2022-10-16T21:56:40.901Z,102207.59
2022-10-16T21:59:08.638Z,102199.94
2022-10-16T22:01:36.329Z,102199.61
2022-10-16T22:04:04.022Z,102193.86
2022-10-16T22:06:31.710Z,102189.54
2022-10-16T22:09:01.416Z,102197.39
2022-10-16T22:11:33.829Z,102195.79
2022-10-16T22:14:01.517Z,102210.50
2022-10-16T22:16:29.251Z,102200.27
2022-10-16T22:18:58.523Z,102196.24
2022-10-16T22:21:27.722Z,102196.77
2022-10-16T22:23:55.353Z,102196.44
2022-10-16T22:26:23.767Z,102197.69
2022-10-16T22:28:51.892Z,102196.60
2022-10-16T22:31:19.611Z,102198.80
2022-10-16T22:33:47.324Z,102207.43
2022-10-16T22:36:16.346Z,102198.34
2022-10-16T22:38:44.077Z,102205.37
2022-10-16T22:41:13.922Z,102197.69
2022-10-16T22:43:51.298Z,102198.34
2022-10-16T22:46:27.286Z,102199.29
2022-10-16T22:48:56.031Z,102199.29
2022-10-16T22:51:25.018Z,102188.76
2022-10-16T22:53:52.689Z,102189.84
2022-10-16T22:56:22.304Z,102190.66
2022-10-16T22:58:51.241Z,102188.56
2022-10-16T23:01:30.080Z,102185.68
2022-10-16T23:03:58.228Z,102186.20
2022-10-16T23:06:26.278Z,102190.36
2022-10-16T23:08:55.655Z,102192.42
2022-10-16T23:11:23.616Z,102198.99
2022-10-16T23:13:51.402Z,102201.18
2022-10-16T23:16:21.174Z,102197.69
2022-10-16T23:18:50.131Z,102206.48
2022-10-16T23:21:24.108Z,102208.54
2022-10-16T23:23:53.067Z,102205.66
2022-10-16T23:26:23.693Z,102210.17
2022-10-16T23:28:51.526Z,102216.84
2022-10-16T23:31:20.230Z,102223.88
2022-10-16T23:33:47.909Z,102221.00
2022-10-16T23:36:20.332Z,102215.24
2022-10-16T23:38:48.930Z,102212.70
2022-10-16T23:41:17.562Z,102212.70
2022-10-16T23:43:45.720Z,102213.19
2022-10-16T23:46:14.892Z,102211.09
2022-10-16T23:48:42.788Z,102216.39
2022-10-16T23:51:11.156Z,102215.57
2022-10-16T23:53:39.439Z,102219.56
2022-10-16T23:56:07.276Z,102218.45
2022-10-16T23:58:34.933Z,102217.50
